METAR Data
IDs: Format: Raw Decoded Include TAF

Data at: 1135 UTC 28 Sep 2021

LKKV 281130Z 36004KT 330V030 9999 BKN011 14/12 Q1023